# Tabular Observed and Forecast Hydrograph Information
#
# Location: Sacramento River - Verona (VONC1)
#
# File Generation Time: 05/05/2026 at 07:33 AM PDT
# Data Interval: 1 Hour
#
# Most Recent Date & Time of Maximum Observed: 04/30/2026 at 10:00 AM PDT
# Maximum Observed Stage: 15.93 Feet
# Maximum Observed Flow: 16280 cfs
#
# Earliest Date & Time of Maximum Forecast: 05/05/2026 at 08:00 AM PDT
# Maximum Forecast Stage: 13.12 Feet
# Maximum Forecast Flow: 10872 cfs
#
# OBSERVED
#
# Date & Time (Local) Stage (Feet) Flow (cfs) Trend Observed Status
# ---------------------------------------------------------------------------------
04/30/2026 07 AM PDT 15.92 16260 Normal
04/30/2026 08 AM PDT 15.92 16260 0 Normal
04/30/2026 09 AM PDT 15.92 16260 0 Normal
04/30/2026 10 AM PDT 15.93 16280 + Normal
04/30/2026 11 AM PDT 15.92 16260 - Normal
04/30/2026 12 PM PDT 15.91 16239 - Normal
04/30/2026 01 PM PDT 15.89 16199 - Normal
04/30/2026 02 PM PDT 15.87 16158 - Normal
04/30/2026 03 PM PDT 15.85 16117 - Normal
04/30/2026 04 PM PDT 15.80 16016 - Normal
04/30/2026 05 PM PDT 15.75 15915 - Normal
04/30/2026 06 PM PDT 15.72 15854 - Normal
04/30/2026 07 PM PDT 15.67 15753 - Normal
04/30/2026 08 PM PDT 15.63 15673 - Normal
04/30/2026 09 PM PDT 15.61 15632 - Normal
04/30/2026 10 PM PDT 15.59 15592 - Normal
04/30/2026 11 PM PDT 15.56 15532 - Normal
05/01/2026 12 AM PDT 15.54 15492 - Normal
05/01/2026 01 AM PDT 15.51 15432 - Normal
05/01/2026 02 AM PDT 15.49 15391 - Normal
05/01/2026 03 AM PDT 15.45 15311 - Normal
05/01/2026 04 AM PDT 15.42 15251 - Normal
05/01/2026 05 AM PDT 15.40 15212 - Normal
05/01/2026 06 AM PDT 15.38 15172 - Normal
05/01/2026 07 AM PDT 15.37 15152 - Normal
05/01/2026 08 AM PDT 15.37 15152 0 Normal
05/01/2026 09 AM PDT 15.37 15152 0 Normal
05/01/2026 10 AM PDT 15.35 15112 - Normal
05/01/2026 11 AM PDT 15.37 15152 + Normal
05/01/2026 12 PM PDT 15.34 15092 - Normal
05/01/2026 01 PM PDT 15.34 15092 0 Normal
05/01/2026 02 PM PDT 15.32 15052 - Normal
05/01/2026 03 PM PDT 15.29 14992 - Normal
05/01/2026 04 PM PDT 15.24 14893 - Normal
05/01/2026 05 PM PDT 15.21 14834 - Normal
05/01/2026 06 PM PDT 15.16 14735 - Normal
05/01/2026 07 PM PDT 15.13 14676 - Normal
05/01/2026 08 PM PDT 15.09 14597 - Normal
05/01/2026 09 PM PDT 15.06 14538 - Normal
05/01/2026 10 PM PDT 15.03 14478 - Normal
05/01/2026 11 PM PDT 15.02 14459 - Normal
05/02/2026 12 AM PDT 14.99 14400 - Normal
05/02/2026 01 AM PDT 14.96 14341 - Normal
05/02/2026 02 AM PDT 14.95 14321 - Normal
05/02/2026 03 AM PDT 14.92 14263 - Normal
05/02/2026 04 AM PDT 14.90 14223 - Normal
05/02/2026 05 AM PDT 14.87 14165 - Normal
05/02/2026 06 AM PDT 14.86 14145 - Normal
05/02/2026 07 AM PDT 14.84 14106 - Normal
05/02/2026 08 AM PDT 14.83 14087 - Normal
05/02/2026 09 AM PDT 14.85 14126 + Normal
05/02/2026 10 AM PDT 14.84 14106 - Normal
05/02/2026 11 AM PDT 14.83 14087 - Normal
05/02/2026 12 PM PDT 14.81 14048 - Normal
05/02/2026 01 PM PDT 14.78 13989 - Normal
05/02/2026 02 PM PDT 14.76 13950 - Normal
05/02/2026 03 PM PDT 14.71 13853 - Normal
05/02/2026 04 PM PDT 14.68 13795 - Normal
05/02/2026 05 PM PDT 14.63 13698 - Normal
05/02/2026 06 PM PDT 14.58 13602 - Normal
05/02/2026 07 PM PDT 14.54 13524 - Normal
05/02/2026 08 PM PDT 14.50 13447 - Normal
05/02/2026 09 PM PDT 14.45 13351 - Normal
05/02/2026 10 PM PDT 14.42 13294 - Normal
05/02/2026 11 PM PDT 14.38 13217 - Normal
05/03/2026 12 AM PDT 14.35 13160 - Normal
05/03/2026 01 AM PDT 14.32 13102 - Normal
05/03/2026 02 AM PDT 14.29 13045 - Normal
05/03/2026 03 AM PDT 14.25 12969 - Normal
05/03/2026 04 AM PDT 14.22 12912 - Normal
05/03/2026 05 AM PDT 14.18 12836 - Normal
05/03/2026 06 AM PDT 14.14 12760 - Normal
05/03/2026 07 AM PDT 14.13 12741 - Normal
05/03/2026 08 AM PDT 14.11 12703 - Normal
05/03/2026 09 AM PDT 14.12 12722 + Normal
05/03/2026 10 AM PDT 14.11 12703 - Normal
05/03/2026 11 AM PDT 14.12 12722 + Normal
05/03/2026 12 PM PDT 14.10 12684 - Normal
05/03/2026 01 PM PDT 14.10 12684 0 Normal
05/03/2026 02 PM PDT 14.06 12609 - Normal
05/03/2026 03 PM PDT 14.03 12552 - Normal
05/03/2026 04 PM PDT 13.98 12458 - Normal
05/03/2026 05 PM PDT 13.94 12383 - Normal
05/03/2026 06 PM PDT 13.90 12308 - Normal
05/03/2026 07 PM PDT 13.87 12252 - Normal
05/03/2026 08 PM PDT 13.83 12177 - Normal
05/03/2026 09 PM PDT 13.79 12102 - Normal
05/03/2026 10 PM PDT 13.76 12046 - Normal
05/03/2026 11 PM PDT 13.73 11990 - Normal
05/04/2026 12 AM PDT 13.71 11953 - Normal
05/04/2026 01 AM PDT 13.69 11916 - Normal
05/04/2026 02 AM PDT 13.66 11860 - Normal
05/04/2026 03 AM PDT 13.65 11842 - Normal
05/04/2026 04 AM PDT 13.63 11805 - Normal
05/04/2026 05 AM PDT 13.60 11749 - Normal
05/04/2026 06 AM PDT 13.59 11731 - Normal
05/04/2026 07 AM PDT 13.58 11712 - Normal
05/04/2026 08 AM PDT 13.58 11712 0 Normal
05/04/2026 09 AM PDT 13.58 11712 0 Normal
05/04/2026 10 AM PDT 13.59 11731 + Normal
05/04/2026 11 AM PDT 13.60 11749 + Normal
05/04/2026 12 PM PDT 13.59 11731 - Normal
05/04/2026 01 PM PDT 13.58 11712 - Normal
05/04/2026 02 PM PDT 13.56 11675 - Normal
05/04/2026 03 PM PDT 13.53 11620 - Normal
05/04/2026 04 PM PDT 13.48 11528 - Normal
05/04/2026 05 PM PDT 13.44 11455 - Normal
05/04/2026 06 PM PDT 13.39 11363 - Normal
05/04/2026 07 PM PDT 13.36 11308 - Normal
05/04/2026 08 PM PDT 13.31 11217 - Normal
05/04/2026 09 PM PDT 13.29 11180 - Normal
05/04/2026 10 PM PDT 13.27 11144 - Normal
05/04/2026 11 PM PDT 13.24 11089 - Normal
05/05/2026 12 AM PDT 13.21 11035 - Normal
05/05/2026 01 AM PDT 13.20 11017 - Normal
05/05/2026 02 AM PDT 13.19 10999 - Normal
05/05/2026 03 AM PDT 13.18 10980 - Normal
05/05/2026 04 AM PDT 13.16 10944 - Normal
05/05/2026 05 AM PDT 13.15 10926 - Normal
05/05/2026 06 AM PDT 13.14 10908 - Normal
05/05/2026 07 AM PDT 13.13 10890 - Normal
#
# FORECAST
#
# Date & Time (Local) Stage (Feet) Flow (cfs) Trend Forecast Status
# ---------------------------------------------------------------------------------
05/05/2026 08 AM PDT 13.12 10872 Normal
05/05/2026 09 AM PDT 13.11 10854 - Normal
05/05/2026 10 AM PDT 13.11 10854 0 Normal
05/05/2026 11 AM PDT 13.10 10836 - Normal
05/05/2026 12 PM PDT 13.09 10818 - Normal
05/05/2026 01 PM PDT 13.09 10818 0 Normal
05/05/2026 02 PM PDT 13.08 10800 - Normal
05/05/2026 03 PM PDT 13.08 10800 0 Normal
05/05/2026 04 PM PDT 13.08 10800 0 Normal
05/05/2026 05 PM PDT 13.07 10782 - Normal
05/05/2026 06 PM PDT 13.07 10782 0 Normal
05/05/2026 07 PM PDT 13.07 10782 0 Normal
05/05/2026 08 PM PDT 13.07 10782 0 Normal
05/05/2026 09 PM PDT 13.07 10782 0 Normal
05/05/2026 10 PM PDT 13.07 10782 0 Normal
05/05/2026 11 PM PDT 13.07 10782 0 Normal
05/06/2026 12 AM PDT 13.07 10782 0 Normal
05/06/2026 01 AM PDT 13.07 10782 0 Normal
05/06/2026 02 AM PDT 13.07 10782 0 Normal
05/06/2026 03 AM PDT 13.06 10764 - Normal
05/06/2026 04 AM PDT 13.06 10764 0 Normal
05/06/2026 05 AM PDT 13.05 10746 - Normal
05/06/2026 06 AM PDT 13.05 10746 0 Normal
05/06/2026 07 AM PDT 13.05 10746 0 Normal
05/06/2026 08 AM PDT 13.04 10728 - Normal
05/06/2026 09 AM PDT 13.04 10728 0 Normal
05/06/2026 10 AM PDT 13.04 10728 0 Normal
05/06/2026 11 AM PDT 13.03 10710 - Normal
05/06/2026 12 PM PDT 13.03 10710 0 Normal
05/06/2026 01 PM PDT 13.02 10692 - Normal
05/06/2026 02 PM PDT 13.01 10674 - Normal
05/06/2026 03 PM PDT 13.00 10656 - Normal
05/06/2026 04 PM PDT 12.99 10638 - Normal
05/06/2026 05 PM PDT 12.98 10620 - Normal
05/06/2026 06 PM PDT 12.96 10584 - Normal
05/06/2026 07 PM PDT 12.95 10566 - Normal
05/06/2026 08 PM PDT 12.94 10548 - Normal
05/06/2026 09 PM PDT 12.93 10530 - Normal
05/06/2026 10 PM PDT 12.93 10530 0 Normal
05/06/2026 11 PM PDT 12.92 10512 - Normal
05/07/2026 12 AM PDT 12.91 10494 - Normal
05/07/2026 01 AM PDT 12.91 10494 0 Normal
05/07/2026 02 AM PDT 12.90 10477 - Normal
05/07/2026 03 AM PDT 12.90 10477 0 Normal
05/07/2026 04 AM PDT 12.90 10477 0 Normal
05/07/2026 05 AM PDT 12.90 10477 0 Normal
05/07/2026 06 AM PDT 12.89 10459 - Normal
05/07/2026 07 AM PDT 12.89 10459 0 Normal
05/07/2026 08 AM PDT 12.89 10459 0 Normal
05/07/2026 09 AM PDT 12.89 10459 0 Normal
05/07/2026 10 AM PDT 12.89 10459 0 Normal
05/07/2026 11 AM PDT 12.89 10459 0 Normal
05/07/2026 12 PM PDT 12.90 10477 + Normal
05/07/2026 01 PM PDT 12.90 10477 0 Normal
05/07/2026 02 PM PDT 12.90 10477 0 Normal
05/07/2026 03 PM PDT 12.90 10477 0 Normal
05/07/2026 04 PM PDT 12.90 10477 0 Normal
05/07/2026 05 PM PDT 12.91 10494 + Normal
05/07/2026 06 PM PDT 12.91 10494 0 Normal
05/07/2026 07 PM PDT 12.91 10494 0 Normal
05/07/2026 08 PM PDT 12.91 10494 0 Normal
05/07/2026 09 PM PDT 12.91 10494 0 Normal
05/07/2026 10 PM PDT 12.92 10512 + Normal
05/07/2026 11 PM PDT 12.92 10512 0 Normal
05/08/2026 12 AM PDT 12.92 10512 0 Normal
05/08/2026 01 AM PDT 12.92 10512 0 Normal
05/08/2026 02 AM PDT 12.92 10512 0 Normal
05/08/2026 03 AM PDT 12.92 10512 0 Normal
05/08/2026 04 AM PDT 12.92 10512 0 Normal
05/08/2026 05 AM PDT 12.92 10512 0 Normal
05/08/2026 06 AM PDT 12.92 10512 0 Normal
05/08/2026 07 AM PDT 12.93 10530 + Normal
05/08/2026 08 AM PDT 12.93 10530 0 Normal
05/08/2026 09 AM PDT 12.92 10512 - Normal
05/08/2026 10 AM PDT 12.92 10512 0 Normal
05/08/2026 11 AM PDT 12.92 10512 0 Normal
05/08/2026 12 PM PDT 12.92 10512 0 Normal
05/08/2026 01 PM PDT 12.92 10512 0 Normal
05/08/2026 02 PM PDT 12.92 10512 0 Normal
05/08/2026 03 PM PDT 12.92 10512 0 Normal
05/08/2026 04 PM PDT 12.92 10512 0 Normal
05/08/2026 05 PM PDT 12.92 10512 0 Normal
05/08/2026 06 PM PDT 12.92 10512 0 Normal
05/08/2026 07 PM PDT 12.91 10494 - Normal
05/08/2026 08 PM PDT 12.91 10494 0 Normal
05/08/2026 09 PM PDT 12.91 10494 0 Normal
05/08/2026 10 PM PDT 12.91 10494 0 Normal
05/08/2026 11 PM PDT 12.91 10494 0 Normal
05/09/2026 12 AM PDT 12.91 10494 0 Normal
05/09/2026 01 AM PDT 12.90 10477 - Normal
05/09/2026 02 AM PDT 12.90 10477 0 Normal
05/09/2026 03 AM PDT 12.90 10477 0 Normal
05/09/2026 04 AM PDT 12.89 10459 - Normal
05/09/2026 05 AM PDT 12.89 10459 0 Normal
05/09/2026 06 AM PDT 12.89 10459 0 Normal
05/09/2026 07 AM PDT 12.89 10459 0 Normal
05/09/2026 08 AM PDT 12.88 10441 - Normal
05/09/2026 09 AM PDT 12.88 10441 0 Normal
05/09/2026 10 AM PDT 12.88 10441 0 Normal
05/09/2026 11 AM PDT 12.87 10423 - Normal
05/09/2026 12 PM PDT 12.87 10423 0 Normal
05/09/2026 01 PM PDT 12.87 10423 0 Normal
05/09/2026 02 PM PDT 12.86 10405 - Normal
05/09/2026 03 PM PDT 12.86 10405 0 Normal
05/09/2026 04 PM PDT 12.86 10405 0 Normal
05/09/2026 05 PM PDT 12.85 10387 - Normal
05/09/2026 06 PM PDT 12.85 10387 0 Normal
05/09/2026 07 PM PDT 12.84 10370 - Normal
05/09/2026 08 PM PDT 12.84 10370 0 Normal
05/09/2026 09 PM PDT 12.84 10370 0 Normal
05/09/2026 10 PM PDT 12.83 10352 - Normal
05/09/2026 11 PM PDT 12.83 10352 0 Normal
05/10/2026 12 AM PDT 12.82 10334 - Normal
05/10/2026 01 AM PDT 12.82 10334 0 Normal
05/10/2026 02 AM PDT 12.82 10334 0 Normal
05/10/2026 03 AM PDT 12.81 10316 - Normal
05/10/2026 04 AM PDT 12.81 10316 0 Normal
05/10/2026 05 AM PDT 12.81 10316 0 Normal
#
# NOTE 1: Stages are rounded to the nearest hundredth (.01) of a foot.
# NOTE 2: Flows are rounded to the nearest (1) cfs.
# NOTE 3: Trends are determined using hourly change in unrounded stage and flow.
# NOTE 4: Maximum Values are determined using unrounded stage and flow.
|